createdAt,value
2022-12-19T00:00:37.096Z,12.75
2022-12-19T00:03:05.083Z,13.32
2022-12-19T00:05:36.799Z,13.95
2022-12-19T00:08:16.810Z,12.70
2022-12-19T00:10:56.410Z,13.45
2022-12-19T00:13:24.646Z,12.68
2022-12-19T00:15:52.805Z,13.13
2022-12-19T00:18:20.548Z,13.10
2022-12-19T00:20:55.744Z,13.13
2022-12-19T00:23:23.540Z,12.98
2022-12-19T00:25:52.620Z,13.15
2022-12-19T00:28:21.523Z,11.63
2022-12-19T00:30:49.227Z,11.80
2022-12-19T00:33:19.344Z,12.55
2022-12-19T00:35:47.011Z,12.63
2022-12-19T00:38:14.661Z,12.15
2022-12-19T00:40:42.355Z,14.10
2022-12-19T00:43:11.360Z,12.50
2022-12-19T00:45:39.154Z,12.77
2022-12-19T00:48:07.200Z,13.50
2022-12-19T00:50:37.031Z,13.98
2022-12-19T00:53:04.748Z,12.15
2022-12-19T00:55:34.832Z,12.05
2022-12-19T00:58:02.572Z,13.02
2022-12-19T01:00:31.879Z,12.85
2022-12-19T01:02:59.689Z,13.65
2022-12-19T01:05:30.547Z,13.90
2022-12-19T01:07:59.015Z,12.50
2022-12-19T01:10:30.212Z,13.57
2022-12-19T01:12:58.283Z,14.05
2022-12-19T01:15:25.900Z,12.32
2022-12-19T01:17:55.135Z,12.27
2022-12-19T01:20:29.323Z,13.45
2022-12-19T01:22:59.784Z,12.85
2022-12-19T01:25:28.405Z,14.48
2022-12-19T01:27:56.241Z,12.52
2022-12-19T01:30:24.654Z,12.93
2022-12-19T01:32:55.009Z,13.50
2022-12-19T01:35:22.790Z,14.13
2022-12-19T01:37:51.139Z,15.00
2022-12-19T01:40:19.658Z,14.98
2022-12-19T01:42:48.961Z,12.88
2022-12-19T01:45:42.146Z,12.38
2022-12-19T01:48:19.639Z,13.77
2022-12-19T01:51:01.635Z,12.60
2022-12-19T01:53:35.525Z,14.73
2022-12-19T01:56:09.027Z,12.73
2022-12-19T01:58:39.095Z,14.60
2022-12-19T02:01:07.022Z,13.95
2022-12-19T02:03:38.894Z,13.85
2022-12-19T02:06:12.552Z,14.20
2022-12-19T02:08:42.307Z,15.02
2022-12-19T02:11:09.946Z,14.02
2022-12-19T02:13:39.358Z,15.15
2022-12-19T02:16:21.392Z,14.20
2022-12-19T02:19:05.388Z,13.75
2022-12-19T02:21:46.172Z,14.73
2022-12-19T02:24:44.246Z,14.02
2022-12-19T02:27:43.173Z,14.70
2022-12-19T02:30:14.335Z,16.23
2022-12-19T02:33:03.047Z,13.75
2022-12-19T02:35:41.724Z,12.38
2022-12-19T02:38:17.017Z,13.05
2022-12-19T02:40:54.660Z,15.17
2022-12-19T02:43:26.505Z,15.35
2022-12-19T02:45:56.821Z,15.05
2022-12-19T02:48:28.478Z,14.55
2022-12-19T02:50:56.176Z,14.02
2022-12-19T02:53:25.324Z,14.50
2022-12-19T02:56:11.961Z,12.82
2022-12-19T02:59:13.779Z,14.20
2022-12-19T03:01:48.730Z,13.38
2022-12-19T03:04:26.735Z,13.30
2022-12-19T03:07:01.624Z,13.25
2022-12-19T03:09:41.679Z,13.75
2022-12-19T03:12:17.682Z,14.50
2022-12-19T03:14:47.761Z,14.88
2022-12-19T03:17:15.686Z,13.85
2022-12-19T03:19:46.728Z,15.30
2022-12-19T03:22:14.450Z,14.43
2022-12-19T03:24:42.506Z,14.05
2022-12-19T03:27:12.713Z,13.75
2022-12-19T03:29:46.645Z,14.27
2022-12-19T03:32:16.019Z,13.60
2022-12-19T03:34:48.239Z,13.95
2022-12-19T03:37:19.469Z,14.43
2022-12-19T03:39:50.424Z,14.00
2022-12-19T03:42:37.785Z,13.73
2022-12-19T03:45:07.586Z,13.60
2022-12-19T03:47:39.110Z,14.32
2022-12-19T03:50:09.816Z,15.02
2022-12-19T03:52:46.694Z,13.52
2022-12-19T03:55:20.442Z,15.30
2022-12-19T03:57:55.410Z,14.35
2022-12-19T04:00:24.818Z,13.65
2022-12-19T04:02:56.172Z,15.55
2022-12-19T04:05:27.993Z,14.38
2022-12-19T04:07:59.475Z,14.25
2022-12-19T04:10:29.353Z,14.32
2022-12-19T04:13:03.419Z,13.77
2022-12-19T04:15:35.827Z,14.10
2022-12-19T04:18:06.435Z,15.10
2022-12-19T04:20:40.537Z,13.35
2022-12-19T04:23:15.059Z,13.73
2022-12-19T04:25:46.585Z,14.90
2022-12-19T04:28:18.507Z,13.57
2022-12-19T04:30:47.539Z,13.50
2022-12-19T04:33:15.377Z,12.52
2022-12-19T04:35:44.702Z,14.90
2022-12-19T04:38:12.614Z,14.13
2022-12-19T04:40:41.653Z,13.88
2022-12-19T04:43:09.844Z,15.48
2022-12-19T04:45:37.999Z,15.07
2022-12-19T04:48:06.121Z,14.95
2022-12-19T04:50:35.917Z,14.20
2022-12-19T04:53:05.245Z,14.60
2022-12-19T04:55:32.940Z,14.98
2022-12-19T04:58:04.721Z,13.25
2022-12-19T05:00:32.594Z,13.65
2022-12-19T05:03:00.476Z,14.75
2022-12-19T05:05:28.428Z,14.65
2022-12-19T05:07:56.465Z,14.90
2022-12-19T05:10:25.745Z,15.18
2022-12-19T05:12:55.367Z,15.05
2022-12-19T05:15:23.445Z,15.30
2022-12-19T05:17:51.213Z,15.05
2022-12-19T05:20:19.054Z,13.82
2022-12-19T05:22:46.704Z,14.80
2022-12-19T05:25:14.382Z,13.52
2022-12-19T05:27:43.464Z,12.85
2022-12-19T05:30:12.165Z,12.90
2022-12-19T05:32:39.830Z,14.63
2022-12-19T05:35:08.416Z,13.00
2022-12-19T05:37:36.155Z,14.85
2022-12-19T05:40:03.855Z,14.18
2022-12-19T05:42:31.534Z,15.10
2022-12-19T05:45:00.595Z,14.95
2022-12-19T05:47:28.237Z,16.25
2022-12-19T05:49:55.981Z,13.57
2022-12-19T05:52:24.609Z,14.75
2022-12-19T05:54:52.376Z,14.88
2022-12-19T05:57:20.062Z,13.40
2022-12-19T05:59:47.813Z,15.20
2022-12-19T06:02:16.873Z,16.80
2022-12-19T06:04:44.540Z,14.80
2022-12-19T06:07:16.458Z,14.15
2022-12-19T06:09:46.946Z,14.88
2022-12-19T06:12:14.603Z,14.52
2022-12-19T06:14:42.252Z,13.77
2022-12-19T06:17:09.949Z,15.90
2022-12-19T06:19:38.973Z,14.80
2022-12-19T06:22:06.652Z,15.73
2022-12-19T06:24:34.277Z,15.40
2022-12-19T06:27:01.965Z,14.45
2022-12-19T06:29:29.644Z,14.02
2022-12-19T06:31:57.352Z,17.40
2022-12-19T06:34:55.193Z,15.10
2022-12-19T06:37:14.127Z,14.60
2022-12-19T06:39:41.839Z,14.25
2022-12-19T06:42:24.494Z,15.05
2022-12-19T06:44:53.669Z,14.35
2022-12-19T06:47:23.059Z,15.90
2022-12-19T06:49:50.769Z,16.15
2022-12-19T06:52:19.848Z,15.90
2022-12-19T06:54:47.518Z,16.55
2022-12-19T06:57:15.198Z,15.98
2022-12-19T06:59:43.253Z,18.60
2022-12-19T07:02:24.673Z,16.92
2022-12-19T07:04:57.432Z,16.48
2022-12-19T07:07:26.473Z,14.95
2022-12-19T07:09:54.389Z,16.33
2022-12-19T07:12:22.185Z,16.52
2022-12-19T07:14:53.309Z,16.40
2022-12-19T07:17:23.373Z,17.83
2022-12-19T07:19:51.657Z,15.77
2022-12-19T07:22:19.455Z,15.77
2022-12-19T07:24:48.789Z,16.80
2022-12-19T07:27:16.541Z,15.32
2022-12-19T07:29:44.182Z,14.82
2022-12-19T07:32:11.965Z,15.82
2022-12-19T07:34:39.612Z,13.75
2022-12-19T07:37:07.943Z,15.10
2022-12-19T07:39:35.684Z,14.05
2022-12-19T07:42:04.973Z,16.88
2022-12-19T07:44:39.317Z,13.95
2022-12-19T07:47:07.697Z,14.50
2022-12-19T07:49:35.447Z,12.93
2022-12-19T07:52:03.152Z,13.02
2022-12-19T07:54:30.823Z,12.80
2022-12-19T07:56:58.528Z,10.13
2022-12-19T07:59:31.399Z,9.38
2022-12-19T08:02:02.298Z,10.93
2022-12-19T08:04:30.332Z,10.43
2022-12-19T08:06:58.342Z,9.30
2022-12-19T08:09:27.668Z,10.68
2022-12-19T08:11:55.468Z,10.45
2022-12-19T08:14:23.203Z,10.73
2022-12-19T08:17:19.202Z,9.05
2022-12-19T08:19:39.956Z,11.07
2022-12-19T08:22:07.608Z,9.10
2022-12-19T08:24:35.582Z,9.27
2022-12-19T08:27:03.586Z,9.82
2022-12-19T08:29:31.485Z,10.68
2022-12-19T08:32:00.538Z,9.63
2022-12-19T08:34:28.216Z,10.98
2022-12-19T08:36:55.870Z,10.23
2022-12-19T08:39:23.606Z,9.65
2022-12-19T08:41:51.333Z,9.80
2022-12-19T08:44:19.041Z,9.40
2022-12-19T08:46:49.892Z,9.43
2022-12-19T08:49:19.862Z,8.48
2022-12-19T08:51:47.922Z,10.05
2022-12-19T08:54:15.686Z,8.80
2022-12-19T08:56:46.699Z,10.38
2022-12-19T08:59:15.984Z,8.07
2022-12-19T09:01:50.698Z,8.93
2022-12-19T09:05:58.725Z,8.18
2022-12-19T09:07:07.472Z,8.98
2022-12-19T09:09:35.162Z,9.38
2022-12-19T09:12:03.047Z,8.60
2022-12-19T09:14:34.566Z,8.73
2022-12-19T09:17:04.638Z,7.93
2022-12-19T09:19:34.182Z,9.63
2022-12-19T09:22:01.861Z,7.60
2022-12-19T09:24:29.646Z,9.88
2022-12-19T09:26:57.304Z,8.50
2022-12-19T09:29:26.579Z,8.70
2022-12-19T09:31:57.133Z,8.05
2022-12-19T09:34:37.644Z,7.93
2022-12-19T09:37:08.998Z,8.48
2022-12-19T09:39:45.474Z,8.32
2022-12-19T09:42:41.153Z,7.60
2022-12-19T09:48:03.458Z,7.85
2022-12-19T09:50:48.933Z,7.75
2022-12-19T09:53:25.235Z,7.45
2022-12-19T09:55:54.950Z,7.28
2022-12-19T09:58:32.422Z,7.80
2022-12-19T10:01:03.822Z,7.68
2022-12-19T10:03:40.339Z,8.88
2022-12-19T10:07:04.956Z,8.15
2022-12-19T10:10:49.126Z,6.78
2022-12-19T10:12:43.502Z,7.70
2022-12-19T10:15:09.212Z,7.40
2022-12-19T10:17:54.924Z,7.88
2022-12-19T10:20:28.344Z,6.43
2022-12-19T10:23:08.400Z,7.68
2022-12-19T10:25:52.508Z,6.47
2022-12-19T10:28:47.672Z,7.13
2022-12-19T10:31:22.247Z,6.97
2022-12-19T10:33:56.900Z,6.68
2022-12-19T10:36:48.615Z,7.03
2022-12-19T10:39:21.297Z,6.18
2022-12-19T10:41:56.929Z,6.60
2022-12-19T10:44:28.294Z,6.38
2022-12-19T10:46:56.022Z,6.75
2022-12-19T10:49:27.438Z,7.22
2022-12-19T10:52:00.020Z,8.55
2022-12-19T10:54:39.342Z,7.32
2022-12-19T10:57:26.272Z,5.90
2022-12-19T11:00:02.958Z,6.88
2022-12-19T11:05:04.718Z,6.43
2022-12-19T11:07:32.635Z,7.05
2022-12-19T11:10:28.107Z,7.75
2022-12-19T11:15:49.675Z,7.28
2022-12-19T11:20:04.932Z,7.18
2022-12-19T11:29:15.212Z,6.07
2022-12-19T11:29:46.627Z,6.30
2022-12-19T11:30:05.066Z,6.05
2022-12-19T11:30:39.348Z,7.63
2022-12-19T11:33:15.752Z,6.45
2022-12-19T11:35:49.644Z,8.57
2022-12-19T11:38:22.189Z,6.30
2022-12-19T11:40:54.019Z,6.82
2022-12-19T11:43:45.921Z,6.72
2022-12-19T11:46:30.475Z,6.38
2022-12-19T11:49:02.868Z,5.90
2022-12-19T11:51:35.705Z,7.93
2022-12-19T11:54:13.148Z,7.40
2022-12-19T11:56:41.049Z,6.93
2022-12-19T11:59:19.375Z,7.03
2022-12-19T12:02:04.451Z,6.15
2022-12-19T12:05:02.059Z,6.07
2022-12-19T12:07:56.981Z,7.75
2022-12-19T12:14:02.072Z,6.53
2022-12-19T12:22:16.507Z,6.35
2022-12-19T12:25:13.322Z,6.72
2022-12-19T12:31:10.064Z,7.00
2022-12-19T12:31:14.258Z,7.30
2022-12-19T12:31:26.819Z,6.35
2022-12-19T12:31:41.321Z,6.13
2022-12-19T12:35:34.264Z,6.25
2022-12-19T12:38:14.526Z,8.52
2022-12-19T12:40:43.588Z,7.05
2022-12-19T12:43:22.602Z,7.57
2022-12-19T12:45:50.388Z,7.18
2022-12-19T12:48:24.927Z,7.10
2022-12-19T12:50:56.264Z,5.43
2022-12-19T12:53:27.279Z,6.25
2022-12-19T12:55:57.564Z,7.00
2022-12-19T12:58:45.693Z,8.05
2022-12-19T13:01:18.395Z,7.07
2022-12-19T13:03:55.817Z,7.75
2022-12-19T13:06:33.037Z,7.43
2022-12-19T13:09:05.032Z,6.50
2022-12-19T13:12:05.120Z,6.88
2022-12-19T13:14:49.657Z,6.28
2022-12-19T13:17:26.183Z,6.68
2022-12-19T13:22:39.415Z,6.90
2022-12-19T13:25:48.901Z,7.80
2022-12-19T13:28:42.180Z,7.90
2022-12-19T13:31:23.287Z,6.57
2022-12-19T13:34:19.069Z,8.23
2022-12-19T13:39:54.162Z,7.13
2022-12-19T13:40:09.051Z,6.97
2022-12-19T13:43:09.729Z,6.57
2022-12-19T13:45:42.498Z,7.05
2022-12-19T13:48:16.290Z,7.13
2022-12-19T13:50:47.616Z,7.18
2022-12-19T13:53:18.488Z,7.50
2022-12-19T13:55:48.981Z,8.35
2022-12-19T13:58:29.227Z,7.30
2022-12-19T14:01:03.911Z,6.93
2022-12-19T14:03:37.982Z,7.28
2022-12-19T14:06:19.725Z,7.00
2022-12-19T14:08:59.273Z,7.57
2022-12-19T14:13:45.276Z,6.80
2022-12-19T14:14:48.563Z,7.18
2022-12-19T14:17:37.526Z,8.13
2022-12-19T14:21:52.618Z,6.32
2022-12-19T14:23:05.920Z,6.82
2022-12-19T14:28:18.375Z,7.68
2022-12-19T14:28:33.476Z,6.63
2022-12-19T14:31:06.147Z,7.50
2022-12-19T14:33:58.524Z,7.70
2022-12-19T14:36:30.586Z,7.25
2022-12-19T14:39:25.329Z,6.65
2022-12-19T14:42:08.488Z,6.20
2022-12-19T14:54:09.465Z,6.38
2022-12-19T14:54:16.722Z,7.10
2022-12-19T14:54:26.180Z,8.10
2022-12-19T14:54:26.182Z,7.25
2022-12-19T14:58:58.831Z,7.38
2022-12-19T15:01:29.887Z,7.00
2022-12-19T15:04:48.085Z,6.53
2022-12-19T15:07:09.740Z,7.25
2022-12-19T15:11:08.834Z,7.95
2022-12-19T15:14:46.750Z,7.30
2022-12-19T15:15:58.757Z,7.68
2022-12-19T15:18:29.101Z,6.80
2022-12-19T15:20:59.071Z,6.95
2022-12-19T15:23:28.796Z,6.95
2022-12-19T15:26:06.658Z,7.70
2022-12-19T15:28:41.409Z,8.55
2022-12-19T15:31:26.685Z,7.18
2022-12-19T15:36:42.487Z,7.25
2022-12-19T15:39:11.509Z,7.85
2022-12-19T15:41:39.187Z,7.80
2022-12-19T15:44:11.180Z,7.43
2022-12-19T15:46:46.344Z,7.10
2022-12-19T15:49:17.347Z,8.07
2022-12-19T15:51:45.388Z,6.85
2022-12-19T15:54:47.230Z,7.18
2022-12-19T15:57:02.717Z,6.30
2022-12-19T15:59:37.562Z,6.97
2022-12-19T16:02:17.321Z,7.30
2022-12-19T16:04:46.471Z,7.25
2022-12-19T16:07:17.018Z,6.20
2022-12-19T16:09:46.159Z,6.18
2022-12-19T16:12:16.784Z,7.18
2022-12-19T16:14:45.156Z,6.45
2022-12-19T16:17:22.187Z,5.90
2022-12-19T16:19:51.042Z,7.40
2022-12-19T16:22:21.093Z,6.47
2022-12-19T16:24:51.012Z,6.55
2022-12-19T16:27:23.401Z,7.05
2022-12-19T16:29:51.542Z,7.50
2022-12-19T16:32:20.029Z,6.00
2022-12-19T16:34:47.684Z,6.43
2022-12-19T16:37:15.353Z,6.38
2022-12-19T16:39:43.176Z,6.55
2022-12-19T16:42:17.078Z,6.53
2022-12-19T16:44:47.341Z,6.15
2022-12-19T16:47:17.078Z,7.50
2022-12-19T16:49:45.512Z,6.55
2022-12-19T16:52:13.475Z,6.53
2022-12-19T16:54:41.153Z,7.13
2022-12-19T16:57:19.754Z,6.80
2022-12-19T16:59:47.767Z,6.90
2022-12-19T17:02:39.124Z,6.70
2022-12-19T17:05:07.937Z,6.57
2022-12-19T17:07:36.219Z,6.25
2022-12-19T17:10:03.993Z,6.35
2022-12-19T17:12:33.275Z,6.88
2022-12-19T17:15:01.097Z,6.53
2022-12-19T17:17:29.330Z,7.13
2022-12-19T17:19:56.997Z,6.45
2022-12-19T17:22:24.645Z,7.82
2022-12-19T17:24:52.370Z,6.55
2022-12-19T17:27:22.723Z,6.13
2022-12-19T17:29:51.765Z,5.68
2022-12-19T17:32:24.316Z,6.70
2022-12-19T17:34:53.696Z,5.82
2022-12-19T17:37:21.841Z,5.60
2022-12-19T17:39:49.539Z,6.22
2022-12-19T17:42:22.526Z,5.63
2022-12-19T17:44:52.054Z,6.90
2022-12-19T17:47:21.092Z,6.80
2022-12-19T17:49:49.716Z,6.47
2022-12-19T17:52:20.055Z,5.82
2022-12-19T17:54:48.103Z,6.63
2022-12-19T17:57:17.164Z,5.88
2022-12-19T17:59:46.378Z,6.13
2022-12-19T18:02:27.237Z,6.93
2022-12-19T18:04:55.110Z,5.85
2022-12-19T18:07:22.786Z,6.10
2022-12-19T18:09:50.643Z,7.47
2022-12-19T18:12:18.295Z,6.43
2022-12-19T18:14:46.157Z,5.55
2022-12-19T18:17:16.837Z,5.80
2022-12-19T18:19:45.903Z,5.85
2022-12-19T18:22:14.175Z,6.65
2022-12-19T18:24:42.004Z,6.28
2022-12-19T18:27:09.828Z,6.60
2022-12-19T18:29:37.591Z,6.90
2022-12-19T18:32:05.416Z,5.80
2022-12-19T18:34:35.487Z,6.35
2022-12-19T18:37:05.428Z,6.63
2022-12-19T18:39:34.089Z,6.60
2022-12-19T18:42:02.058Z,6.05
2022-12-19T18:44:29.767Z,6.30
2022-12-19T18:46:57.507Z,5.82
2022-12-19T18:49:25.455Z,5.95
2022-12-19T18:51:53.120Z,5.90
2022-12-19T18:54:23.380Z,5.72
2022-12-19T18:56:51.797Z,6.63
2022-12-19T18:59:19.995Z,5.40
2022-12-19T19:01:48.211Z,6.07
2022-12-19T19:04:17.895Z,6.05
2022-12-19T19:06:51.624Z,6.82
2022-12-19T19:09:22.734Z,6.10
2022-12-19T19:12:09.009Z,5.85
2022-12-19T19:14:36.701Z,5.88
2022-12-19T19:17:06.012Z,6.65
2022-12-19T19:19:33.787Z,6.68
2022-12-19T19:22:01.479Z,5.93
2022-12-19T19:24:30.573Z,6.35
2022-12-19T19:26:58.281Z,5.18
2022-12-19T19:29:25.970Z,5.60
2022-12-19T19:31:53.761Z,5.93
2022-12-19T19:34:26.765Z,5.18
2022-12-19T19:36:58.033Z,5.70
2022-12-19T19:39:27.603Z,6.20
2022-12-19T19:41:57.073Z,6.13
2022-12-19T19:44:24.840Z,5.20
2022-12-19T19:46:52.555Z,5.93
2022-12-19T19:49:21.355Z,5.57
2022-12-19T19:51:49.076Z,5.57
2022-12-19T19:54:16.855Z,6.35
2022-12-19T19:56:44.568Z,5.78
2022-12-19T19:59:13.762Z,5.13
2022-12-19T20:01:41.583Z,5.82
2022-12-19T20:04:09.637Z,4.95
2022-12-19T20:06:37.369Z,5.28
2022-12-19T20:09:05.280Z,5.38
2022-12-19T20:11:32.993Z,5.97
2022-12-19T20:14:00.675Z,5.35
2022-12-19T20:16:29.752Z,5.70
2022-12-19T20:18:57.463Z,5.60
2022-12-19T20:21:25.136Z,6.07
2022-12-19T20:23:52.851Z,6.07
2022-12-19T20:26:20.572Z,6.40
2022-12-19T20:28:50.045Z,7.07
2022-12-19T20:31:19.141Z,5.88
2022-12-19T20:33:49.199Z,6.03
2022-12-19T20:36:17.456Z,6.03
2022-12-19T20:38:48.157Z,6.45
2022-12-19T20:41:16.212Z,5.50
2022-12-19T20:43:44.040Z,6.57
2022-12-19T20:46:13.996Z,6.45
2022-12-19T20:48:42.187Z,6.47
2022-12-19T20:51:11.801Z,6.50
2022-12-19T20:53:41.471Z,5.43
2022-12-19T20:56:10.365Z,5.32
2022-12-19T20:58:39.085Z,5.63
2022-12-19T21:01:09.362Z,6.53
2022-12-19T21:03:38.024Z,5.60
2022-12-19T21:06:07.137Z,6.05
2022-12-19T21:08:36.995Z,5.72
2022-12-19T21:11:06.340Z,5.85
2022-12-19T21:13:35.171Z,5.05
2022-12-19T21:16:06.859Z,5.32
2022-12-19T21:18:35.246Z,5.40
2022-12-19T21:21:04.357Z,5.75
2022-12-19T21:23:32.053Z,4.50
2022-12-19T21:26:02.796Z,5.05
2022-12-19T21:28:30.826Z,5.53
2022-12-19T21:31:00.244Z,4.70
2022-12-19T21:33:28.462Z,4.50
2022-12-19T21:35:56.600Z,5.07
2022-12-19T21:38:24.791Z,6.03
2022-12-19T21:40:52.517Z,4.72
2022-12-19T21:43:21.640Z,5.38
2022-12-19T21:45:49.756Z,4.75
2022-12-19T21:48:17.437Z,5.13
2022-12-19T21:50:45.207Z,5.47
2022-12-19T21:53:12.974Z,5.65
2022-12-19T21:55:40.937Z,4.82
2022-12-19T21:58:08.645Z,4.75
2022-12-19T22:00:37.846Z,4.43
2022-12-19T22:03:15.131Z,4.68
2022-12-19T22:05:43.457Z,4.55
2022-12-19T22:08:11.984Z,5.03
2022-12-19T22:10:39.973Z,4.18
2022-12-19T22:13:07.840Z,4.68
2022-12-19T22:15:37.560Z,4.22
2022-12-19T22:18:05.381Z,4.55
2022-12-19T22:20:33.162Z,4.68
2022-12-19T22:23:00.824Z,4.43
2022-12-19T22:25:28.529Z,4.40
2022-12-19T22:27:56.430Z,4.78
2022-12-19T22:30:24.200Z,4.47
2022-12-19T22:32:53.231Z,3.90
2022-12-19T22:35:20.934Z,5.13
2022-12-19T22:37:48.729Z,4.25
2022-12-19T22:40:16.751Z,4.50
2022-12-19T22:42:44.441Z,4.50
2022-12-19T22:45:12.461Z,4.57
2022-12-19T22:47:42.428Z,3.95
2022-12-19T22:50:11.830Z,4.05
2022-12-19T22:52:39.704Z,4.43
2022-12-19T22:55:08.294Z,4.85
2022-12-19T22:57:35.993Z,4.32
2022-12-19T23:00:06.061Z,4.15
2022-12-19T23:02:33.930Z,4.43
2022-12-19T23:05:01.708Z,4.57
2022-12-19T23:07:30.807Z,3.90
2022-12-19T23:09:58.470Z,3.78
2022-12-19T23:12:26.518Z,3.40
2022-12-19T23:14:54.414Z,4.30
2022-12-19T23:17:22.322Z,4.45
2022-12-19T23:19:50.089Z,3.92
2022-12-19T23:22:17.802Z,4.50
2022-12-19T23:24:48.661Z,4.57
2022-12-19T23:27:16.347Z,4.00
2022-12-19T23:29:44.131Z,3.70
2022-12-19T23:32:12.163Z,4.00
2022-12-19T23:34:39.802Z,3.85
2022-12-19T23:37:11.917Z,3.80
2022-12-19T23:39:40.208Z,4.00
2022-12-19T23:42:09.315Z,4.25
2022-12-19T23:44:37.190Z,3.90
2022-12-19T23:47:04.942Z,4.65
2022-12-19T23:49:33.475Z,3.80
2022-12-19T23:52:01.314Z,4.10
2022-12-19T23:54:29.064Z,3.72
2022-12-19T23:56:56.721Z,3.65
2022-12-19T23:59:25.884Z,4.00
